sensor_id;sensor_type;location;lat;lon;timestamp;temperature;humidity
59618;DHT22;45437;51.458;-2.568;2022-07-29T00:00:20;19.40;63.30
59618;DHT22;45437;51.458;-2.568;2022-07-29T00:01:21;19.40;63.30
59618;DHT22;45437;51.458;-2.568;2022-07-29T00:02:22;19.40;63.30
59618;DHT22;45437;51.458;-2.568;2022-07-29T00:03:23;19.40;63.30
59618;DHT22;45437;51.458;-2.568;2022-07-29T00:04:24;19.40;62.90
59618;DHT22;45437;51.458;-2.568;2022-07-29T00:05:25;19.40;63.10
59618;DHT22;45437;51.458;-2.568;2022-07-29T00:06:26;19.30;63.40
59618;DHT22;45437;51.458;-2.568;2022-07-29T00:07:27;19.40;63.50
59618;DHT22;45437;51.458;-2.568;2022-07-29T00:08:28;19.40;63.50
59618;DHT22;45437;51.458;-2.568;2022-07-29T00:09:29;19.30;63.30
59618;DHT22;45437;51.458;-2.568;2022-07-29T00:10:30;19.40;63.40
59618;DHT22;45437;51.458;-2.568;2022-07-29T00:11:31;19.40;63.40
59618;DHT22;45437;51.458;-2.568;2022-07-29T00:12:32;19.40;63.40
59618;DHT22;45437;51.458;-2.568;2022-07-29T00:13:33;19.40;63.50
59618;DHT22;45437;51.458;-2.568;2022-07-29T00:14:34;19.40;63.50
59618;DHT22;45437;51.458;-2.568;2022-07-29T00:15:35;19.40;63.30
59618;DHT22;45437;51.458;-2.568;2022-07-29T00:16:36;19.40;63.30
59618;DHT22;45437;51.458;-2.568;2022-07-29T00:17:37;19.40;63.30
59618;DHT22;45437;51.458;-2.568;2022-07-29T00:18:38;19.40;63.40
59618;DHT22;45437;51.458;-2.568;2022-07-29T00:19:40;19.40;63.30
59618;DHT22;45437;51.458;-2.568;2022-07-29T00:20:41;19.30;63.30
59618;DHT22;45437;51.458;-2.568;2022-07-29T00:21:41;19.30;63.30
59618;DHT22;45437;51.458;-2.568;2022-07-29T00:22:43;19.40;63.30
59618;DHT22;45437;51.458;-2.568;2022-07-29T00:23:44;19.30;63.30
59618;DHT22;45437;51.458;-2.568;2022-07-29T00:24:46;19.30;63.30
59618;DHT22;45437;51.458;-2.568;2022-07-29T00:25:47;19.30;63.30
59618;DHT22;45437;51.458;-2.568;2022-07-29T00:26:48;19.30;63.30
59618;DHT22;45437;51.458;-2.568;2022-07-29T00:27:49;19.30;63.30
59618;DHT22;45437;51.458;-2.568;2022-07-29T00:28:50;19.30;63.30
59618;DHT22;45437;51.458;-2.568;2022-07-29T00:29:51;19.30;63.30
59618;DHT22;45437;51.458;-2.568;2022-07-29T00:30:52;19.30;63.30
59618;DHT22;45437;51.458;-2.568;2022-07-29T00:31:53;19.30;63.30
59618;DHT22;45437;51.458;-2.568;2022-07-29T00:32:54;19.30;63.10
59618;DHT22;45437;51.458;-2.568;2022-07-29T00:33:55;19.30;63.10
59618;DHT22;45437;51.458;-2.568;2022-07-29T00:34:55;19.30;63.10
59618;DHT22;45437;51.458;-2.568;2022-07-29T00:36:35;19.30;63.20
59618;DHT22;45437;51.458;-2.568;2022-07-29T00:37:36;19.30;63.40
59618;DHT22;45437;51.458;-2.568;2022-07-29T00:38:37;19.30;63.30
59618;DHT22;45437;51.458;-2.568;2022-07-29T00:39:38;19.30;63.20
59618;DHT22;45437;51.458;-2.568;2022-07-29T00:40:40;19.30;63.30
59618;DHT22;45437;51.458;-2.568;2022-07-29T00:41:41;19.30;63.30
59618;DHT22;45437;51.458;-2.568;2022-07-29T00:42:43;19.30;63.30
59618;DHT22;45437;51.458;-2.568;2022-07-29T00:43:45;19.30;63.40
59618;DHT22;45437;51.458;-2.568;2022-07-29T00:44:46;19.20;63.30
59618;DHT22;45437;51.458;-2.568;2022-07-29T00:45:47;19.30;63.20
59618;DHT22;45437;51.458;-2.568;2022-07-29T00:46:48;19.20;63.20
59618;DHT22;45437;51.458;-2.568;2022-07-29T00:47:49;19.20;63.20
59618;DHT22;45437;51.458;-2.568;2022-07-29T00:48:50;19.20;63.20
59618;DHT22;45437;51.458;-2.568;2022-07-29T00:49:51;19.20;63.30
59618;DHT22;45437;51.458;-2.568;2022-07-29T00:50:52;19.20;63.20
59618;DHT22;45437;51.458;-2.568;2022-07-29T00:51:53;19.20;63.20
59618;DHT22;45437;51.458;-2.568;2022-07-29T00:52:54;19.20;63.10
59618;DHT22;45437;51.458;-2.568;2022-07-29T00:53:56;19.20;63.00
59618;DHT22;45437;51.458;-2.568;2022-07-29T00:54:57;19.20;63.10
59618;DHT22;45437;51.458;-2.568;2022-07-29T00:55:58;19.20;63.20
59618;DHT22;45437;51.458;-2.568;2022-07-29T00:57:00;19.20;63.20
59618;DHT22;45437;51.458;-2.568;2022-07-29T00:58:01;19.20;63.30
59618;DHT22;45437;51.458;-2.568;2022-07-29T00:59:02;19.20;63.20
59618;DHT22;45437;51.458;-2.568;2022-07-29T01:00:05;19.20;63.20
59618;DHT22;45437;51.458;-2.568;2022-07-29T01:01:06;19.20;63.30
59618;DHT22;45437;51.458;-2.568;2022-07-29T01:02:07;19.20;63.30
59618;DHT22;45437;51.458;-2.568;2022-07-29T01:03:09;19.20;63.30
59618;DHT22;45437;51.458;-2.568;2022-07-29T01:04:10;19.10;62.90
59618;DHT22;45437;51.458;-2.568;2022-07-29T01:05:11;19.10;63.10
59618;DHT22;45437;51.458;-2.568;2022-07-29T01:06:14;19.10;62.80
59618;DHT22;45437;51.458;-2.568;2022-07-29T01:07:17;19.10;63.00
59618;DHT22;45437;51.458;-2.568;2022-07-29T01:08:18;19.10;63.20
59618;DHT22;45437;51.458;-2.568;2022-07-29T01:09:20;19.10;63.10
59618;DHT22;45437;51.458;-2.568;2022-07-29T01:10:22;19.10;63.10
59618;DHT22;45437;51.458;-2.568;2022-07-29T01:11:23;19.10;63.20
59618;DHT22;45437;51.458;-2.568;2022-07-29T01:12:26;19.10;63.20
59618;DHT22;45437;51.458;-2.568;2022-07-29T01:13:27;19.10;63.30
59618;DHT22;45437;51.458;-2.568;2022-07-29T01:14:31;19.10;63.20
59618;DHT22;45437;51.458;-2.568;2022-07-29T01:15:34;19.10;63.20
59618;DHT22;45437;51.458;-2.568;2022-07-29T01:18:03;19.20;63.30
59618;DHT22;45437;51.458;-2.568;2022-07-29T01:21:04;19.10;63.40
59618;DHT22;45437;51.458;-2.568;2022-07-29T01:22:24;19.20;63.40
59618;DHT22;45437;51.458;-2.568;2022-07-29T01:24:58;19.10;63.30
59618;DHT22;45437;51.458;-2.568;2022-07-29T01:26:21;19.10;63.50
59618;DHT22;45437;51.458;-2.568;2022-07-29T01:27:44;19.10;63.40
59618;DHT22;45437;51.458;-2.568;2022-07-29T01:29:00;19.10;63.40
59618;DHT22;45437;51.458;-2.568;2022-07-29T01:30:02;19.10;63.30
59618;DHT22;45437;51.458;-2.568;2022-07-29T01:31:05;19.10;63.40
59618;DHT22;45437;51.458;-2.568;2022-07-29T01:32:12;19.10;63.50
59618;DHT22;45437;51.458;-2.568;2022-07-29T01:33:17;19.10;63.40
59618;DHT22;45437;51.458;-2.568;2022-07-29T01:35:42;19.10;63.50
59618;DHT22;45437;51.458;-2.568;2022-07-29T01:36:48;19.10;63.50
59618;DHT22;45437;51.458;-2.568;2022-07-29T01:39:08;19.10;63.50
59618;DHT22;45437;51.458;-2.568;2022-07-29T01:40:52;19.10;63.40
59618;DHT22;45437;51.458;-2.568;2022-07-29T01:42:13;19.00;63.30
59618;DHT22;45437;51.458;-2.568;2022-07-29T01:43:18;19.00;63.30
59618;DHT22;45437;51.458;-2.568;2022-07-29T01:44:32;19.00;63.20
59618;DHT22;45437;51.458;-2.568;2022-07-29T01:45:45;19.00;63.30
59618;DHT22;45437;51.458;-2.568;2022-07-29T01:46:52;19.00;63.30
59618;DHT22;45437;51.458;-2.568;2022-07-29T01:48:03;19.00;63.30
59618;DHT22;45437;51.458;-2.568;2022-07-29T01:49:15;19.00;63.20
59618;DHT22;45437;51.458;-2.568;2022-07-29T01:50:18;19.00;63.00
59618;DHT22;45437;51.458;-2.568;2022-07-29T01:51:29;19.00;63.00
59618;DHT22;45437;51.458;-2.568;2022-07-29T01:52:46;19.00;62.90
59618;DHT22;45437;51.458;-2.568;2022-07-29T01:54:06;19.00;63.10
59618;DHT22;45437;51.458;-2.568;2022-07-29T01:55:16;19.00;63.20
59618;DHT22;45437;51.458;-2.568;2022-07-29T01:56:18;19.00;63.10
59618;DHT22;45437;51.458;-2.568;2022-07-29T01:57:25;19.00;62.90
59618;DHT22;45437;51.458;-2.568;2022-07-29T01:58:29;19.00;63.00
59618;DHT22;45437;51.458;-2.568;2022-07-29T01:59:34;19.00;63.10
59618;DHT22;45437;51.458;-2.568;2022-07-29T02:00:36;19.00;63.00
59618;DHT22;45437;51.458;-2.568;2022-07-29T02:01:39;19.00;63.10
59618;DHT22;45437;51.458;-2.568;2022-07-29T02:02:43;19.00;63.00
59618;DHT22;45437;51.458;-2.568;2022-07-29T02:03:46;19.00;63.00
59618;DHT22;45437;51.458;-2.568;2022-07-29T02:04:48;19.00;63.10
59618;DHT22;45437;51.458;-2.568;2022-07-29T02:05:50;19.00;63.10
59618;DHT22;45437;51.458;-2.568;2022-07-29T02:06:52;19.00;63.10
59618;DHT22;45437;51.458;-2.568;2022-07-29T02:07:55;19.00;63.20
59618;DHT22;45437;51.458;-2.568;2022-07-29T02:08:58;19.00;63.30
59618;DHT22;45437;51.458;-2.568;2022-07-29T02:10:00;19.00;63.20
59618;DHT22;45437;51.458;-2.568;2022-07-29T02:11:03;19.00;63.30
59618;DHT22;45437;51.458;-2.568;2022-07-29T02:12:06;19.00;63.30
59618;DHT22;45437;51.458;-2.568;2022-07-29T02:13:09;19.00;63.30
59618;DHT22;45437;51.458;-2.568;2022-07-29T02:14:12;18.90;63.30
59618;DHT22;45437;51.458;-2.568;2022-07-29T02:15:16;18.90;63.30
59618;DHT22;45437;51.458;-2.568;2022-07-29T02:16:21;18.90;63.30
59618;DHT22;45437;51.458;-2.568;2022-07-29T02:17:32;19.00;63.40
59618;DHT22;45437;51.458;-2.568;2022-07-29T02:18:36;19.00;63.40
59618;DHT22;45437;51.458;-2.568;2022-07-29T02:19:38;18.90;63.40
59618;DHT22;45437;51.458;-2.568;2022-07-29T02:20:46;18.90;63.30
59618;DHT22;45437;51.458;-2.568;2022-07-29T02:21:48;18.90;64.10
59618;DHT22;45437;51.458;-2.568;2022-07-29T02:22:51;18.90;63.50
59618;DHT22;45437;51.458;-2.568;2022-07-29T02:23:52;18.90;63.50
59618;DHT22;45437;51.458;-2.568;2022-07-29T02:24:55;18.90;63.50
59618;DHT22;45437;51.458;-2.568;2022-07-29T02:25:58;18.90;63.50
59618;DHT22;45437;51.458;-2.568;2022-07-29T02:26:59;18.90;63.40
59618;DHT22;45437;51.458;-2.568;2022-07-29T02:28:02;18.90;63.30
59618;DHT22;45437;51.458;-2.568;2022-07-29T02:29:04;18.90;63.50
59618;DHT22;45437;51.458;-2.568;2022-07-29T02:30:06;18.90;63.50
59618;DHT22;45437;51.458;-2.568;2022-07-29T02:31:08;18.90;63.50
59618;DHT22;45437;51.458;-2.568;2022-07-29T02:32:11;18.90;63.50
59618;DHT22;45437;51.458;-2.568;2022-07-29T02:33:16;18.90;63.50
59618;DHT22;45437;51.458;-2.568;2022-07-29T02:34:19;18.80;63.50
59618;DHT22;45437;51.458;-2.568;2022-07-29T02:35:21;18.80;63.40
59618;DHT22;45437;51.458;-2.568;2022-07-29T02:36:23;18.80;63.40
59618;DHT22;45437;51.458;-2.568;2022-07-29T02:37:25;18.80;63.50
59618;DHT22;45437;51.458;-2.568;2022-07-29T02:38:27;18.90;63.50
59618;DHT22;45437;51.458;-2.568;2022-07-29T02:39:48;18.80;63.40
59618;DHT22;45437;51.458;-2.568;2022-07-29T02:40:51;18.80;63.50
59618;DHT22;45437;51.458;-2.568;2022-07-29T02:41:55;18.80;63.50
59618;DHT22;45437;51.458;-2.568;2022-07-29T02:42:58;18.80;63.50
59618;DHT22;45437;51.458;-2.568;2022-07-29T02:44:03;18.80;63.40
59618;DHT22;45437;51.458;-2.568;2022-07-29T02:45:06;18.80;63.50
59618;DHT22;45437;51.458;-2.568;2022-07-29T02:46:13;18.80;63.60
59618;DHT22;45437;51.458;-2.568;2022-07-29T02:47:34;18.80;63.60
59618;DHT22;45437;51.458;-2.568;2022-07-29T02:48:43;18.80;63.60
59618;DHT22;45437;51.458;-2.568;2022-07-29T02:51:04;18.80;63.70
59618;DHT22;45437;51.458;-2.568;2022-07-29T02:53:18;18.80;63.80
59618;DHT22;45437;51.458;-2.568;2022-07-29T02:55:37;18.80;63.80
59618;DHT22;45437;51.458;-2.568;2022-07-29T02:56:40;18.80;63.80
59618;DHT22;45437;51.458;-2.568;2022-07-29T02:57:46;18.80;63.90
59618;DHT22;45437;51.458;-2.568;2022-07-29T02:58:56;18.70;63.90
59618;DHT22;45437;51.458;-2.568;2022-07-29T03:00:00;18.70;64.60
59618;DHT22;45437;51.458;-2.568;2022-07-29T03:01:11;18.80;64.00
59618;DHT22;45437;51.458;-2.568;2022-07-29T03:02:13;18.70;64.00
59618;DHT22;45437;51.458;-2.568;2022-07-29T03:03:16;18.70;63.90
59618;DHT22;45437;51.458;-2.568;2022-07-29T03:04:19;18.70;64.00
59618;DHT22;45437;51.458;-2.568;2022-07-29T03:05:22;18.70;64.10
59618;DHT22;45437;51.458;-2.568;2022-07-29T03:06:23;18.70;64.10
59618;DHT22;45437;51.458;-2.568;2022-07-29T03:07:25;18.70;64.10
59618;DHT22;45437;51.458;-2.568;2022-07-29T03:08:27;18.70;64.00
59618;DHT22;45437;51.458;-2.568;2022-07-29T03:09:29;18.70;64.10
59618;DHT22;45437;51.458;-2.568;2022-07-29T03:10:31;18.70;64.20
59618;DHT22;45437;51.458;-2.568;2022-07-29T03:11:33;18.70;64.10
59618;DHT22;45437;51.458;-2.568;2022-07-29T03:12:35;18.70;64.20
59618;DHT22;45437;51.458;-2.568;2022-07-29T03:13:36;18.70;64.20
59618;DHT22;45437;51.458;-2.568;2022-07-29T03:14:38;18.70;64.10
59618;DHT22;45437;51.458;-2.568;2022-07-29T03:15:39;18.70;64.10
59618;DHT22;45437;51.458;-2.568;2022-07-29T03:16:42;18.70;64.20
59618;DHT22;45437;51.458;-2.568;2022-07-29T03:17:44;18.70;64.30
59618;DHT22;45437;51.458;-2.568;2022-07-29T03:18:45;18.70;64.20
59618;DHT22;45437;51.458;-2.568;2022-07-29T03:19:47;18.70;64.30
59618;DHT22;45437;51.458;-2.568;2022-07-29T03:20:48;18.70;64.10
59618;DHT22;45437;51.458;-2.568;2022-07-29T03:21:50;18.70;64.40
59618;DHT22;45437;51.458;-2.568;2022-07-29T03:22:51;18.60;64.10
59618;DHT22;45437;51.458;-2.568;2022-07-29T03:23:52;18.60;64.40
59618;DHT22;45437;51.458;-2.568;2022-07-29T03:24:52;18.60;64.50
59618;DHT22;45437;51.458;-2.568;2022-07-29T03:25:54;18.60;64.50
59618;DHT22;45437;51.458;-2.568;2022-07-29T03:26:56;18.50;64.30
59618;DHT22;45437;51.458;-2.568;2022-07-29T03:27:57;18.50;64.50
59618;DHT22;45437;51.458;-2.568;2022-07-29T03:28:58;18.60;64.50
59618;DHT22;45437;51.458;-2.568;2022-07-29T03:29:59;18.60;64.50
59618;DHT22;45437;51.458;-2.568;2022-07-29T03:31:00;18.50;64.30
59618;DHT22;45437;51.458;-2.568;2022-07-29T03:32:03;18.50;64.40
59618;DHT22;45437;51.458;-2.568;2022-07-29T03:33:04;18.50;64.50
59618;DHT22;45437;51.458;-2.568;2022-07-29T03:34:05;18.50;64.50
59618;DHT22;45437;51.458;-2.568;2022-07-29T03:35:06;18.50;64.50
59618;DHT22;45437;51.458;-2.568;2022-07-29T03:36:07;18.50;64.40
59618;DHT22;45437;51.458;-2.568;2022-07-29T03:37:09;18.50;64.50
59618;DHT22;45437;51.458;-2.568;2022-07-29T03:38:10;18.50;64.50
59618;DHT22;45437;51.458;-2.568;2022-07-29T03:39:13;18.50;64.70
59618;DHT22;45437;51.458;-2.568;2022-07-29T03:40:31;18.50;64.70
59618;DHT22;45437;51.458;-2.568;2022-07-29T03:41:36;18.40;64.70
59618;DHT22;45437;51.458;-2.568;2022-07-29T03:42:39;18.40;64.70
59618;DHT22;45437;51.458;-2.568;2022-07-29T03:43:42;18.40;64.80
59618;DHT22;45437;51.458;-2.568;2022-07-29T03:44:46;18.40;64.70
59618;DHT22;45437;51.458;-2.568;2022-07-29T03:45:49;18.40;64.80
59618;DHT22;45437;51.458;-2.568;2022-07-29T03:46:52;18.40;64.70
59618;DHT22;45437;51.458;-2.568;2022-07-29T03:48:01;18.40;64.80
59618;DHT22;45437;51.458;-2.568;2022-07-29T03:49:04;18.40;64.90
59618;DHT22;45437;51.458;-2.568;2022-07-29T03:50:06;18.30;64.90
59618;DHT22;45437;51.458;-2.568;2022-07-29T03:51:09;18.40;65.00
59618;DHT22;45437;51.458;-2.568;2022-07-29T03:52:10;18.40;64.90
59618;DHT22;45437;51.458;-2.568;2022-07-29T03:53:11;18.40;65.00
59618;DHT22;45437;51.458;-2.568;2022-07-29T03:54:12;18.40;65.00
59618;DHT22;45437;51.458;-2.568;2022-07-29T03:55:14;18.40;64.80
59618;DHT22;45437;51.458;-2.568;2022-07-29T03:56:17;18.40;64.70
59618;DHT22;45437;51.458;-2.568;2022-07-29T03:57:24;18.40;64.70
59618;DHT22;45437;51.458;-2.568;2022-07-29T03:58:26;18.40;64.90
59618;DHT22;45437;51.458;-2.568;2022-07-29T03:59:27;18.40;64.80
59618;DHT22;45437;51.458;-2.568;2022-07-29T04:00:31;18.40;64.80
59618;DHT22;45437;51.458;-2.568;2022-07-29T04:01:34;18.40;64.80
59618;DHT22;45437;51.458;-2.568;2022-07-29T04:02:36;18.30;64.70
59618;DHT22;45437;51.458;-2.568;2022-07-29T04:03:38;18.30;64.80
59618;DHT22;45437;51.458;-2.568;2022-07-29T04:04:40;18.40;64.80
59618;DHT22;45437;51.458;-2.568;2022-07-29T04:05:40;18.30;64.80
59618;DHT22;45437;51.458;-2.568;2022-07-29T04:06:43;18.40;64.90
59618;DHT22;45437;51.458;-2.568;2022-07-29T04:07:45;18.40;64.90
59618;DHT22;45437;51.458;-2.568;2022-07-29T04:08:46;18.30;64.60
59618;DHT22;45437;51.458;-2.568;2022-07-29T04:09:47;18.30;64.70
59618;DHT22;45437;51.458;-2.568;2022-07-29T04:10:48;18.30;64.70
59618;DHT22;45437;51.458;-2.568;2022-07-29T04:11:50;18.30;64.70
59618;DHT22;45437;51.458;-2.568;2022-07-29T04:12:51;18.30;64.80
59618;DHT22;45437;51.458;-2.568;2022-07-29T04:13:53;18.30;64.80
59618;DHT22;45437;51.458;-2.568;2022-07-29T04:14:54;18.30;64.80
59618;DHT22;45437;51.458;-2.568;2022-07-29T04:15:54;18.30;64.90
59618;DHT22;45437;51.458;-2.568;2022-07-29T04:16:55;18.30;65.00
59618;DHT22;45437;51.458;-2.568;2022-07-29T04:17:56;18.30;65.00
59618;DHT22;45437;51.458;-2.568;2022-07-29T04:18:57;18.30;65.70
59618;DHT22;45437;51.458;-2.568;2022-07-29T04:19:59;18.30;65.00
59618;DHT22;45437;51.458;-2.568;2022-07-29T04:21:00;18.30;64.90
59618;DHT22;45437;51.458;-2.568;2022-07-29T04:22:01;18.30;65.00
59618;DHT22;45437;51.458;-2.568;2022-07-29T04:23:02;18.30;64.80
59618;DHT22;45437;51.458;-2.568;2022-07-29T04:24:03;18.30;65.00
59618;DHT22;45437;51.458;-2.568;2022-07-29T04:25:04;18.30;65.00
59618;DHT22;45437;51.458;-2.568;2022-07-29T04:26:05;18.30;65.80
59618;DHT22;45437;51.458;-2.568;2022-07-29T04:27:07;18.30;65.10
59618;DHT22;45437;51.458;-2.568;2022-07-29T04:28:08;18.30;65.10
59618;DHT22;45437;51.458;-2.568;2022-07-29T04:29:09;18.30;65.10
59618;DHT22;45437;51.458;-2.568;2022-07-29T04:30:10;18.30;65.10
59618;DHT22;45437;51.458;-2.568;2022-07-29T04:31:12;18.30;65.20
59618;DHT22;45437;51.458;-2.568;2022-07-29T04:32:13;18.20;65.10
59618;DHT22;45437;51.458;-2.568;2022-07-29T04:33:14;18.30;65.20
59618;DHT22;45437;51.458;-2.568;2022-07-29T04:34:15;18.20;65.00
59618;DHT22;45437;51.458;-2.568;2022-07-29T04:35:16;18.20;65.10
59618;DHT22;45437;51.458;-2.568;2022-07-29T04:36:17;18.20;65.20
59618;DHT22;45437;51.458;-2.568;2022-07-29T04:37:18;18.20;65.10
59618;DHT22;45437;51.458;-2.568;2022-07-29T04:38:19;18.20;65.10
59618;DHT22;45437;51.458;-2.568;2022-07-29T04:39:20;18.20;65.10
59618;DHT22;45437;51.458;-2.568;2022-07-29T04:40:21;18.20;65.10
59618;DHT22;45437;51.458;-2.568;2022-07-29T04:41:22;18.20;65.20
59618;DHT22;45437;51.458;-2.568;2022-07-29T04:42:22;18.20;65.10
59618;DHT22;45437;51.458;-2.568;2022-07-29T04:43:23;18.20;65.20
59618;DHT22;45437;51.458;-2.568;2022-07-29T04:44:24;18.20;65.20
59618;DHT22;45437;51.458;-2.568;2022-07-29T04:45:26;18.20;65.20
59618;DHT22;45437;51.458;-2.568;2022-07-29T04:46:26;18.20;65.20
59618;DHT22;45437;51.458;-2.568;2022-07-29T04:47:27;18.20;65.30
59618;DHT22;45437;51.458;-2.568;2022-07-29T04:48:28;18.20;65.20
59618;DHT22;45437;51.458;-2.568;2022-07-29T04:49:29;18.10;65.20
59618;DHT22;45437;51.458;-2.568;2022-07-29T04:50:30;18.10;65.30
59618;DHT22;45437;51.458;-2.568;2022-07-29T04:51:31;18.10;65.30
59618;DHT22;45437;51.458;-2.568;2022-07-29T04:52:32;18.20;65.40
59618;DHT22;45437;51.458;-2.568;2022-07-29T04:53:33;18.10;65.20
59618;DHT22;45437;51.458;-2.568;2022-07-29T04:54:33;18.10;65.30
59618;DHT22;45437;51.458;-2.568;2022-07-29T04:55:34;18.10;65.40
59618;DHT22;45437;51.458;-2.568;2022-07-29T04:56:36;18.10;65.40
59618;DHT22;45437;51.458;-2.568;2022-07-29T04:57:37;18.10;65.30
59618;DHT22;45437;51.458;-2.568;2022-07-29T04:58:38;18.10;65.30
59618;DHT22;45437;51.458;-2.568;2022-07-29T04:59:39;18.10;65.30
59618;DHT22;45437;51.458;-2.568;2022-07-29T05:00:40;18.10;65.40
59618;DHT22;45437;51.458;-2.568;2022-07-29T05:01:41;18.10;65.40
59618;DHT22;45437;51.458;-2.568;2022-07-29T05:02:42;18.10;65.40
59618;DHT22;45437;51.458;-2.568;2022-07-29T05:03:44;18.10;65.50
59618;DHT22;45437;51.458;-2.568;2022-07-29T05:04:45;18.10;65.50
59618;DHT22;45437;51.458;-2.568;2022-07-29T05:05:46;18.10;65.60
59618;DHT22;45437;51.458;-2.568;2022-07-29T05:06:47;18.10;65.60
59618;DHT22;45437;51.458;-2.568;2022-07-29T05:07:48;18.10;65.60
59618;DHT22;45437;51.458;-2.568;2022-07-29T05:08:49;18.10;65.60
59618;DHT22;45437;51.458;-2.568;2022-07-29T05:09:50;18.10;65.60
59618;DHT22;45437;51.458;-2.568;2022-07-29T05:10:51;18.10;65.60
59618;DHT22;45437;51.458;-2.568;2022-07-29T05:11:51;18.10;65.60
59618;DHT22;45437;51.458;-2.568;2022-07-29T05:12:52;18.10;65.70
59618;DHT22;45437;51.458;-2.568;2022-07-29T05:13:53;18.10;65.60
59618;DHT22;45437;51.458;-2.568;2022-07-29T05:14:54;18.10;65.70
59618;DHT22;45437;51.458;-2.568;2022-07-29T05:15:55;18.10;65.60
59618;DHT22;45437;51.458;-2.568;2022-07-29T05:16:58;18.10;65.80
59618;DHT22;45437;51.458;-2.568;2022-07-29T05:18:00;18.10;66.50
59618;DHT22;45437;51.458;-2.568;2022-07-29T05:19:01;18.00;65.70
59618;DHT22;45437;51.458;-2.568;2022-07-29T05:20:02;18.00;65.80
59618;DHT22;45437;51.458;-2.568;2022-07-29T05:21:03;18.00;65.80
59618;DHT22;45437;51.458;-2.568;2022-07-29T05:22:04;18.00;65.80
59618;DHT22;45437;51.458;-2.568;2022-07-29T05:23:06;18.00;65.80
59618;DHT22;45437;51.458;-2.568;2022-07-29T05:24:07;18.00;65.80
59618;DHT22;45437;51.458;-2.568;2022-07-29T05:25:08;18.00;65.80
59618;DHT22;45437;51.458;-2.568;2022-07-29T05:26:10;18.00;65.80
59618;DHT22;45437;51.458;-2.568;2022-07-29T05:27:11;18.00;65.90
59618;DHT22;45437;51.458;-2.568;2022-07-29T05:28:12;18.00;65.90
59618;DHT22;45437;51.458;-2.568;2022-07-29T05:29:13;18.00;65.90
59618;DHT22;45437;51.458;-2.568;2022-07-29T05:30:13;18.00;65.90
59618;DHT22;45437;51.458;-2.568;2022-07-29T05:31:14;18.00;66.00
59618;DHT22;45437;51.458;-2.568;2022-07-29T05:32:15;18.00;66.00
59618;DHT22;45437;51.458;-2.568;2022-07-29T05:33:16;18.00;66.00
59618;DHT22;45437;51.458;-2.568;2022-07-29T05:34:17;18.00;66.10
59618;DHT22;45437;51.458;-2.568;2022-07-29T05:35:19;18.00;66.10
59618;DHT22;45437;51.458;-2.568;2022-07-29T05:36:20;18.00;66.20
59618;DHT22;45437;51.458;-2.568;2022-07-29T05:37:21;18.00;66.20
59618;DHT22;45437;51.458;-2.568;2022-07-29T05:38:22;18.00;66.30
59618;DHT22;45437;51.458;-2.568;2022-07-29T05:39:23;18.00;66.30
59618;DHT22;45437;51.458;-2.568;2022-07-29T05:40:24;18.00;66.40
59618;DHT22;45437;51.458;-2.568;2022-07-29T05:41:25;18.00;66.50
59618;DHT22;45437;51.458;-2.568;2022-07-29T05:42:26;18.00;66.50
59618;DHT22;45437;51.458;-2.568;2022-07-29T05:43:27;18.00;66.60
59618;DHT22;45437;51.458;-2.568;2022-07-29T05:44:29;18.00;66.60
59618;DHT22;45437;51.458;-2.568;2022-07-29T05:45:29;18.00;66.70
59618;DHT22;45437;51.458;-2.568;2022-07-29T05:46:30;18.00;66.70
59618;DHT22;45437;51.458;-2.568;2022-07-29T05:47:31;18.00;66.70
59618;DHT22;45437;51.458;-2.568;2022-07-29T05:48:32;18.00;66.70
59618;DHT22;45437;51.458;-2.568;2022-07-29T05:49:33;18.00;66.70
59618;DHT22;45437;51.458;-2.568;2022-07-29T05:50:34;18.00;66.70
59618;DHT22;45437;51.458;-2.568;2022-07-29T05:51:35;18.00;66.80
59618;DHT22;45437;51.458;-2.568;2022-07-29T05:52:36;18.00;66.80
59618;DHT22;45437;51.458;-2.568;2022-07-29T05:53:37;18.00;66.80
59618;DHT22;45437;51.458;-2.568;2022-07-29T05:54:38;18.00;66.90
59618;DHT22;45437;51.458;-2.568;2022-07-29T05:55:40;18.00;66.90
59618;DHT22;45437;51.458;-2.568;2022-07-29T05:56:41;18.00;66.90
59618;DHT22;45437;51.458;-2.568;2022-07-29T05:57:41;18.00;66.80
59618;DHT22;45437;51.458;-2.568;2022-07-29T05:58:43;18.00;66.90
59618;DHT22;45437;51.458;-2.568;2022-07-29T05:59:45;18.00;67.00
59618;DHT22;45437;51.458;-2.568;2022-07-29T06:00:46;17.90;66.80
59618;DHT22;45437;51.458;-2.568;2022-07-29T06:01:47;18.00;66.90
59618;DHT22;45437;51.458;-2.568;2022-07-29T06:02:48;17.90;66.90
59618;DHT22;45437;51.458;-2.568;2022-07-29T06:03:49;18.00;66.90
59618;DHT22;45437;51.458;-2.568;2022-07-29T06:04:50;18.00;66.90
59618;DHT22;45437;51.458;-2.568;2022-07-29T06:05:51;18.00;66.90
59618;DHT22;45437;51.458;-2.568;2022-07-29T06:06:52;18.00;66.90
59618;DHT22;45437;51.458;-2.568;2022-07-29T06:07:53;18.00;66.90
59618;DHT22;45437;51.458;-2.568;2022-07-29T06:08:54;18.00;66.80
59618;DHT22;45437;51.458;-2.568;2022-07-29T06:09:54;17.90;66.70
59618;DHT22;45437;51.458;-2.568;2022-07-29T06:10:55;18.00;66.90
59618;DHT22;45437;51.458;-2.568;2022-07-29T06:11:56;17.90;66.80
59618;DHT22;45437;51.458;-2.568;2022-07-29T06:12:58;17.90;66.70
59618;DHT22;45437;51.458;-2.568;2022-07-29T06:13:59;17.90;66.80
59618;DHT22;45437;51.458;-2.568;2022-07-29T06:15:00;17.90;66.90
59618;DHT22;45437;51.458;-2.568;2022-07-29T06:16:01;17.90;67.00
59618;DHT22;45437;51.458;-2.568;2022-07-29T06:17:02;18.00;67.00
59618;DHT22;45437;51.458;-2.568;2022-07-29T06:18:03;18.00;67.00
59618;DHT22;45437;51.458;-2.568;2022-07-29T06:19:04;17.90;66.90
59618;DHT22;45437;51.458;-2.568;2022-07-29T06:20:05;17.90;66.90
59618;DHT22;45437;51.458;-2.568;2022-07-29T06:21:09;17.90;67.60
59618;DHT22;45437;51.458;-2.568;2022-07-29T06:22:10;17.90;67.10
59618;DHT22;45437;51.458;-2.568;2022-07-29T06:23:11;17.90;67.10
59618;DHT22;45437;51.458;-2.568;2022-07-29T06:24:13;18.00;67.10
59618;DHT22;45437;51.458;-2.568;2022-07-29T06:25:14;17.90;67.10
59618;DHT22;45437;51.458;-2.568;2022-07-29T06:26:15;18.00;67.10
59618;DHT22;45437;51.458;-2.568;2022-07-29T06:27:16;17.90;67.00
59618;DHT22;45437;51.458;-2.568;2022-07-29T06:28:17;17.90;67.10
59618;DHT22;45437;51.458;-2.568;2022-07-29T06:29:18;17.90;67.20
59618;DHT22;45437;51.458;-2.568;2022-07-29T06:30:19;17.90;67.20
59618;DHT22;45437;51.458;-2.568;2022-07-29T06:31:20;18.00;67.20
59618;DHT22;45437;51.458;-2.568;2022-07-29T06:32:21;17.90;67.10
59618;DHT22;45437;51.458;-2.568;2022-07-29T06:33:22;18.00;67.20
59618;DHT22;45437;51.458;-2.568;2022-07-29T06:34:23;18.00;67.30
59618;DHT22;45437;51.458;-2.568;2022-07-29T06:35:24;17.90;67.30
59618;DHT22;45437;51.458;-2.568;2022-07-29T06:36:25;17.90;67.30
59618;DHT22;45437;51.458;-2.568;2022-07-29T06:37:26;17.90;67.30
59618;DHT22;45437;51.458;-2.568;2022-07-29T06:38:26;17.90;67.50
59618;DHT22;45437;51.458;-2.568;2022-07-29T06:39:27;17.90;67.40
59618;DHT22;45437;51.458;-2.568;2022-07-29T06:40:28;17.90;67.60